createdAt,value
2022-11-12T00:00:05.379Z,95423.64
2022-11-12T00:01:45.044Z,95424.90
2022-11-12T00:03:08.828Z,95422.58
2022-11-12T00:04:30.543Z,95424.48
2022-11-12T00:05:53.443Z,95410.16
2022-11-12T00:07:15.644Z,95422.89
2022-11-12T00:08:51.699Z,95421.51
2022-11-12T00:10:17.087Z,95423.52
2022-11-12T00:11:39.262Z,95426.20
2022-11-12T00:13:01.095Z,95419.90
2022-11-12T00:14:23.357Z,95424.46
2022-11-12T00:15:47.239Z,95420.47
2022-11-12T00:17:09.239Z,95421.21
2022-11-12T00:18:31.059Z,95422.33
2022-11-12T00:19:54.236Z,95418.26
2022-11-12T00:21:16.099Z,95423.50
2022-11-12T00:22:38.809Z,95424.63
2022-11-12T00:24:03.089Z,95423.40
2022-11-12T00:25:25.119Z,95423.66
2022-11-12T00:26:46.953Z,95420.39
2022-11-12T00:28:10.833Z,95421.43
2022-11-12T00:29:32.487Z,95420.97
2022-11-12T00:30:54.603Z,95423.56
2022-11-12T00:32:16.634Z,95422.55
2022-11-12T00:33:43.388Z,95421.90
2022-11-12T00:35:08.677Z,95426.96
2022-11-12T00:36:32.968Z,95424.27
2022-11-12T00:37:56.897Z,95427.39
2022-11-12T00:39:19.308Z,95427.98
2022-11-12T00:40:42.483Z,95431.73
2022-11-12T00:42:04.749Z,95431.34
2022-11-12T00:43:26.643Z,95434.97
2022-11-12T00:44:50.079Z,95430.68
2022-11-12T00:46:12.244Z,95425.27
2022-11-12T00:47:34.458Z,95427.45
2022-11-12T00:48:56.391Z,95427.42
2022-11-12T00:50:18.334Z,95425.65
2022-11-12T00:51:40.612Z,95424.98
2022-11-12T00:53:02.837Z,95425.33
2022-11-12T00:54:27.444Z,95420.66
2022-11-12T00:55:49.169Z,95421.30
2022-11-12T00:57:11.379Z,95420.69
2022-11-12T00:58:35.671Z,95416.46
2022-11-12T00:59:57.480Z,95418.30
2022-11-12T01:01:19.908Z,95416.94
2022-11-12T01:02:47.738Z,95414.21
2022-11-12T01:04:12.631Z,95413.27
2022-11-12T01:05:34.890Z,95410.05
2022-11-12T01:06:56.592Z,95408.28
2022-11-12T01:08:18.691Z,95407.67
2022-11-12T01:09:42.178Z,95410.01
2022-11-12T01:11:14.151Z,95410.70
2022-11-12T01:12:36.642Z,95412.60
2022-11-12T01:14:01.391Z,95411.66
2022-11-12T01:15:23.100Z,95412.04
2022-11-12T01:16:44.984Z,95411.72
2022-11-12T01:18:07.089Z,95406.66
2022-11-12T01:19:29.110Z,95399.77
2022-11-12T01:20:52.101Z,95403.77
2022-11-12T01:22:14.506Z,95406.16
2022-11-12T01:23:38.736Z,95405.84
2022-11-12T01:25:00.590Z,95410.64
2022-11-12T01:26:25.545Z,95412.63
2022-11-12T01:27:47.439Z,95412.20
2022-11-12T01:29:09.307Z,95408.79
2022-11-12T01:30:30.996Z,95414.67
2022-11-12T01:31:54.109Z,95410.71
2022-11-12T01:33:15.817Z,95408.64
2022-11-12T01:34:37.663Z,95406.79
2022-11-12T01:36:00.316Z,95406.06
2022-11-12T01:37:22.085Z,95399.57
2022-11-12T01:38:45.329Z,95401.62
2022-11-12T01:40:08.052Z,95400.04
2022-11-12T01:41:32.648Z,95397.30
2022-11-12T01:42:54.647Z,95397.38
2022-11-12T01:44:22.722Z,95395.60
2022-11-12T01:45:50.265Z,95398.98
2022-11-12T01:47:29.356Z,95398.59
2022-11-12T01:48:58.585Z,95395.48
2022-11-12T01:50:25.668Z,95396.56
2022-11-12T01:51:51.018Z,95398.41
2022-11-12T01:53:16.976Z,95397.04
2022-11-12T01:54:40.276Z,95396.91
2022-11-12T01:56:05.844Z,95395.13
2022-11-12T01:57:34.833Z,95394.89
2022-11-12T01:59:04.659Z,95395.52
2022-11-12T02:00:26.729Z,95391.75
2022-11-12T02:01:49.088Z,95395.05
2022-11-12T02:03:17.594Z,95390.52
2022-11-12T02:04:40.926Z,95391.31
2022-11-12T02:06:09.696Z,95386.58
2022-11-12T02:07:32.917Z,95389.13
2022-11-12T02:08:55.639Z,95387.38
2022-11-12T02:10:17.804Z,95386.17
2022-11-12T02:11:39.629Z,95381.23
2022-11-12T02:13:21.395Z,95380.76
2022-11-12T02:14:42.994Z,95377.23
2022-11-12T02:16:09.683Z,95377.10
2022-11-12T02:17:31.544Z,95375.41
2022-11-12T02:18:54.843Z,95375.75
2022-11-12T02:20:16.918Z,95373.50
2022-11-12T02:21:38.964Z,95367.30
2022-11-12T02:23:01.213Z,95367.29
2022-11-12T02:24:22.823Z,95368.03
2022-11-12T02:25:44.812Z,95368.13
2022-11-12T02:27:07.779Z,95369.67
2022-11-12T02:28:33.072Z,95367.41
2022-11-12T02:29:54.832Z,95366.89
2022-11-12T02:31:16.728Z,95366.05
2022-11-12T02:32:40.588Z,95364.63
2022-11-12T02:34:02.653Z,95364.06
2022-11-12T02:35:24.930Z,95362.63
2022-11-12T02:36:46.898Z,95359.64
2022-11-12T02:38:09.935Z,95357.69
2022-11-12T02:39:32.237Z,95361.33
2022-11-12T02:40:55.208Z,95359.48
2022-11-12T02:42:17.341Z,95360.62
2022-11-12T02:43:40.718Z,95351.48
2022-11-12T02:45:02.638Z,95355.99
2022-11-12T02:46:24.539Z,95358.13
2022-11-12T02:47:46.572Z,95361.08
2022-11-12T02:49:08.549Z,95359.55
2022-11-12T02:50:30.791Z,95357.70
2022-11-12T02:51:52.226Z,95358.64
2022-11-12T02:53:14.384Z,95361.20
2022-11-12T02:54:36.416Z,95363.05
2022-11-12T02:55:58.708Z,95362.49
2022-11-12T02:57:23.333Z,95367.75
2022-11-12T02:58:45.397Z,95365.64
2022-11-12T03:00:11.695Z,95354.02
2022-11-12T03:01:33.597Z,95368.34
2022-11-12T03:03:04.707Z,95365.29
2022-11-12T03:04:26.705Z,95365.90
2022-11-12T03:06:02.091Z,95362.75
2022-11-12T03:07:23.826Z,95360.69
2022-11-12T03:08:45.678Z,95364.42
2022-11-12T03:10:08.438Z,95362.86
2022-11-12T03:11:30.306Z,95366.19
2022-11-12T03:12:52.813Z,95366.57
2022-11-12T03:14:15.213Z,95364.59
2022-11-12T03:15:40.178Z,95362.79
2022-11-12T03:17:04.488Z,95365.61
2022-11-12T03:18:26.304Z,95369.08
2022-11-12T03:19:48.291Z,95368.95
2022-11-12T03:21:10.222Z,95366.64
2022-11-12T03:22:32.276Z,95368.40
2022-11-12T03:23:54.020Z,95367.95
2022-11-12T03:25:16.074Z,95364.58
2022-11-12T03:26:37.737Z,95365.18
2022-11-12T03:28:02.354Z,95361.89
2022-11-12T03:29:24.063Z,95359.83
2022-11-12T03:30:46.289Z,95359.66
2022-11-12T03:32:08.664Z,95358.39
2022-11-12T03:33:30.573Z,95357.62
2022-11-12T03:34:55.462Z,95359.63
2022-11-12T03:36:17.929Z,95360.15
2022-11-12T03:37:39.931Z,95356.42
2022-11-12T03:39:02.317Z,95352.41
2022-11-12T03:40:24.468Z,95354.77
2022-11-12T03:41:46.754Z,95355.44
2022-11-12T03:43:09.226Z,95359.16
2022-11-12T03:44:31.243Z,95360.61
2022-11-12T03:45:53.314Z,95358.25
2022-11-12T03:47:17.583Z,95362.90
2022-11-12T03:48:39.670Z,95363.25
2022-11-12T03:50:02.059Z,95359.46
2022-11-12T03:51:23.920Z,95364.51
2022-11-12T03:52:50.533Z,95364.97
2022-11-12T03:54:13.147Z,95361.80
2022-11-12T03:55:35.028Z,95363.65
2022-11-12T03:56:56.785Z,95359.31
2022-11-12T03:58:18.552Z,95357.77
2022-11-12T03:59:40.542Z,95354.04
2022-11-12T04:01:02.931Z,95354.25
2022-11-12T04:02:27.025Z,95357.21
2022-11-12T04:03:49.074Z,95349.98
2022-11-12T04:05:31.336Z,95347.48
2022-11-12T04:07:12.083Z,95348.18
2022-11-12T04:08:37.060Z,95345.77
2022-11-12T04:09:59.098Z,95346.42
2022-11-12T04:11:21.398Z,95343.48
2022-11-12T04:13:01.699Z,95345.38
2022-11-12T04:14:23.914Z,95344.79
2022-11-12T04:16:05.957Z,95345.81
2022-11-12T04:17:46.746Z,95344.65
2022-11-12T04:19:32.458Z,95343.02
2022-11-12T04:21:14.385Z,95343.03
2022-11-12T04:22:36.319Z,95342.21
2022-11-12T04:23:58.423Z,95343.64
2022-11-12T04:25:43.637Z,95344.67
2022-11-12T04:27:06.870Z,95343.83
2022-11-12T04:28:29.295Z,95345.23
2022-11-12T04:30:13.319Z,95340.67
2022-11-12T04:31:35.306Z,95345.35
2022-11-12T04:32:58.645Z,95345.02
2022-11-12T04:34:29.802Z,95340.81
2022-11-12T04:35:51.910Z,95342.64
2022-11-12T04:37:18.758Z,95345.06
2022-11-12T04:38:45.213Z,95343.02
2022-11-12T04:40:27.862Z,95343.23
2022-11-12T04:42:07.974Z,95342.80
2022-11-12T04:43:48.520Z,95339.40
2022-11-12T04:45:11.193Z,95338.41
2022-11-12T04:46:32.909Z,95336.41
2022-11-12T04:47:54.826Z,95338.35
2022-11-12T04:49:16.909Z,95334.05
2022-11-12T04:50:40.052Z,95334.17
2022-11-12T04:52:07.975Z,95335.06
2022-11-12T04:53:31.050Z,95330.14
2022-11-12T04:54:53.160Z,95330.58
2022-11-12T04:56:15.254Z,95332.28
2022-11-12T04:57:38.512Z,95331.80
2022-11-12T04:59:00.450Z,95328.66
2022-11-12T05:00:22.359Z,95329.92
2022-11-12T05:01:44.554Z,95330.80
2022-11-12T05:03:06.379Z,95326.55
2022-11-12T05:04:32.129Z,95326.64
2022-11-12T05:05:53.959Z,95326.89
2022-11-12T05:07:16.547Z,95329.15
2022-11-12T05:08:38.521Z,95330.94
2022-11-12T05:10:00.209Z,95333.44
2022-11-12T05:11:24.677Z,95333.83
2022-11-12T05:12:46.374Z,95331.45
2022-11-12T05:14:08.368Z,95330.48
2022-11-12T05:15:30.441Z,95331.97
2022-11-12T05:16:52.763Z,95331.26
2022-11-12T05:18:14.794Z,95333.96
2022-11-12T05:19:36.452Z,95334.70
2022-11-12T05:20:58.433Z,95333.63
2022-11-12T05:22:42.620Z,95331.20
2022-11-12T05:24:05.099Z,95336.52
2022-11-12T05:25:27.129Z,95335.67
2022-11-12T05:26:49.455Z,95341.27
2022-11-12T05:28:11.760Z,95339.86
2022-11-12T05:29:33.469Z,95342.22
2022-11-12T05:30:55.258Z,95343.79
2022-11-12T05:32:18.638Z,95343.86
2022-11-12T05:33:40.597Z,95342.21
2022-11-12T05:35:02.854Z,95341.63
2022-11-12T05:36:26.163Z,95346.85
2022-11-12T05:37:47.886Z,95344.33
2022-11-12T05:39:09.965Z,95341.45
2022-11-12T05:40:31.796Z,95342.20
2022-11-12T05:42:11.857Z,95339.44
2022-11-12T05:43:34.333Z,95339.35
2022-11-12T05:44:56.211Z,95337.43
2022-11-12T05:46:19.412Z,95334.60
2022-11-12T05:47:41.562Z,95339.86
2022-11-12T05:49:03.844Z,95341.96
2022-11-12T05:50:39.581Z,95343.36
2022-11-12T05:52:02.532Z,95346.36
2022-11-12T05:53:24.496Z,95348.77
2022-11-12T05:54:46.030Z,95349.70
2022-11-12T05:56:09.877Z,95348.14
2022-11-12T05:57:32.045Z,95351.59
2022-11-12T05:58:56.183Z,95348.20
2022-11-12T06:00:18.164Z,95348.81
2022-11-12T06:01:44.323Z,95349.14
2022-11-12T06:03:09.939Z,95351.44
2022-11-12T06:04:32.082Z,95353.80
2022-11-12T06:05:54.197Z,95352.99
2022-11-12T06:07:16.107Z,95352.67
2022-11-12T06:08:37.983Z,95359.12
2022-11-12T06:09:59.795Z,95358.70
2022-11-12T06:11:21.842Z,95361.92
2022-11-12T06:12:43.610Z,95363.02
2022-11-12T06:14:05.953Z,95366.27
2022-11-12T06:15:28.110Z,95366.85
2022-11-12T06:16:50.172Z,95369.90
2022-11-12T06:18:12.375Z,95365.07
2022-11-12T06:19:34.330Z,95367.83
2022-11-12T06:21:20.198Z,95353.84
2022-11-12T06:22:42.397Z,95366.82
2022-11-12T06:24:04.518Z,95363.13
2022-11-12T06:25:26.858Z,95363.86
2022-11-12T06:26:48.677Z,95368.17
2022-11-12T06:28:10.873Z,95367.71
2022-11-12T06:29:32.713Z,95371.61
2022-11-12T06:30:58.088Z,95374.09
2022-11-12T06:32:20.295Z,95371.56
2022-11-12T06:33:42.320Z,95373.34
2022-11-12T06:35:06.143Z,95372.99
2022-11-12T06:36:28.718Z,95371.91
2022-11-12T06:37:50.491Z,95373.58
2022-11-12T06:39:12.552Z,95375.71
2022-11-12T06:40:36.729Z,95370.24
2022-11-12T06:41:58.594Z,95378.73
2022-11-12T06:43:20.781Z,95378.81
2022-11-12T06:44:42.197Z,95377.50
2022-11-12T06:46:13.003Z,95376.11
2022-11-12T06:47:35.063Z,95378.42
2022-11-12T06:48:56.899Z,95378.45
2022-11-12T06:50:19.137Z,95379.31
2022-11-12T06:51:40.917Z,95378.98
2022-11-12T06:53:02.994Z,95380.79
2022-11-12T06:54:24.807Z,95381.02
2022-11-12T06:55:46.894Z,95381.16
2022-11-12T06:57:08.804Z,95383.70
2022-11-12T06:58:30.941Z,95382.77
2022-11-12T06:59:52.807Z,95381.02
2022-11-12T07:01:16.814Z,95381.69
2022-11-12T07:02:38.477Z,95385.19
2022-11-12T07:04:00.513Z,95382.29
2022-11-12T07:05:24.284Z,95381.50
2022-11-12T07:06:46.232Z,95383.63
2022-11-12T07:08:08.438Z,95382.88
2022-11-12T07:09:30.513Z,95387.77
2022-11-12T07:10:58.570Z,95382.96
2022-11-12T07:12:22.033Z,95389.25
2022-11-12T07:13:47.184Z,95386.61
2022-11-12T07:15:09.773Z,95381.52
2022-11-12T07:16:34.607Z,95387.14
2022-11-12T07:17:56.763Z,95382.59
2022-11-12T07:19:18.795Z,95385.73
2022-11-12T07:20:40.703Z,95379.35
2022-11-12T07:22:02.526Z,95379.65
2022-11-12T07:23:24.812Z,95375.18
2022-11-12T07:24:47.629Z,95382.59
2022-11-12T07:26:21.360Z,95382.20
2022-11-12T07:27:43.338Z,95380.66
2022-11-12T07:29:07.503Z,95375.88
2022-11-12T07:30:29.281Z,95378.00
2022-11-12T07:31:51.858Z,95378.03
2022-11-12T07:33:15.014Z,95377.30
2022-11-12T07:34:37.169Z,95375.46
2022-11-12T07:36:12.797Z,95374.91
2022-11-12T07:37:35.641Z,95374.25
2022-11-12T07:38:58.702Z,95376.44
2022-11-12T07:40:20.904Z,95376.61
2022-11-12T07:41:45.170Z,95375.98
2022-11-12T07:43:07.422Z,95377.88
2022-11-12T07:44:29.286Z,95381.91
2022-11-12T07:45:51.390Z,95381.41
2022-11-12T07:47:13.260Z,95378.68
2022-11-12T07:48:34.872Z,95376.36
2022-11-12T07:49:56.636Z,95378.52
2022-11-12T07:51:20.180Z,95381.59
2022-11-12T07:52:42.165Z,95380.89
2022-11-12T07:54:04.544Z,95383.94
2022-11-12T07:55:26.872Z,95382.81
2022-11-12T07:56:48.630Z,95377.22
2022-11-12T07:58:10.497Z,95373.43
2022-11-12T07:59:32.528Z,95375.96
2022-11-12T08:00:54.498Z,95374.31
2022-11-12T08:02:16.440Z,95378.27
2022-11-12T08:03:38.519Z,95379.40
2022-11-12T08:05:00.717Z,95377.48
2022-11-12T08:06:23.177Z,95377.17
2022-11-12T08:07:44.977Z,95379.14
2022-11-12T08:09:08.700Z,95380.15
2022-11-12T08:10:30.676Z,95377.73
2022-11-12T08:11:54.430Z,95378.77
2022-11-12T08:13:19.613Z,95379.58
2022-11-12T08:14:41.614Z,95379.55
2022-11-12T08:16:04.036Z,95378.14
2022-11-12T08:17:29.116Z,95373.84
2022-11-12T08:18:50.925Z,95373.52
2022-11-12T08:20:15.769Z,95376.59
2022-11-12T08:21:37.716Z,95375.11
2022-11-12T08:23:04.255Z,95376.27
2022-11-12T08:24:25.814Z,95381.42
2022-11-12T08:25:47.889Z,95381.70
2022-11-12T08:27:11.012Z,95380.53
2022-11-12T08:28:35.099Z,95376.30
2022-11-12T08:29:57.865Z,95376.95
2022-11-12T08:31:24.088Z,95375.24
2022-11-12T08:32:47.774Z,95373.50
2022-11-12T08:34:16.060Z,95375.41
2022-11-12T08:35:40.268Z,95375.41
2022-11-12T08:37:04.547Z,95376.92
2022-11-12T08:38:26.494Z,95374.28
2022-11-12T08:39:48.444Z,95376.95
2022-11-12T08:41:13.160Z,95373.55
2022-11-12T08:42:35.195Z,95374.16
2022-11-12T08:43:58.262Z,95375.13
2022-11-12T08:45:20.375Z,95374.92
2022-11-12T08:46:42.711Z,95375.92
2022-11-12T08:48:08.418Z,95379.15
2022-11-12T08:49:30.586Z,95378.01
2022-11-12T08:50:53.378Z,95380.08
2022-11-12T08:52:15.534Z,95379.38
2022-11-12T08:53:37.532Z,95381.20
2022-11-12T08:54:59.415Z,95380.86
2022-11-12T08:56:21.684Z,95377.91
2022-11-12T08:57:44.757Z,95378.14
2022-11-12T08:59:07.616Z,95377.92
2022-11-12T09:00:37.309Z,95380.96
2022-11-12T09:01:59.155Z,95380.43
2022-11-12T09:03:23.703Z,95376.70
2022-11-12T09:04:45.691Z,95376.20
2022-11-12T09:06:07.651Z,95379.95
2022-11-12T09:07:48.835Z,95379.71
2022-11-12T09:09:13.274Z,95380.11
2022-11-12T09:10:36.626Z,95375.10
2022-11-12T09:11:58.345Z,95374.58
2022-11-12T09:13:21.065Z,95371.36
2022-11-12T09:14:42.938Z,95372.58
2022-11-12T09:16:07.343Z,95373.17
2022-11-12T09:17:31.150Z,95372.66
2022-11-12T09:18:52.794Z,95379.43
2022-11-12T09:20:15.934Z,95381.77
2022-11-12T09:21:37.910Z,95380.70
2022-11-12T09:23:02.023Z,95382.01
2022-11-12T09:24:26.488Z,95382.66
2022-11-12T09:25:48.418Z,95381.80
2022-11-12T09:27:10.490Z,95384.83
2022-11-12T09:28:32.631Z,95383.61
2022-11-12T09:29:54.795Z,95384.71
2022-11-12T09:31:16.812Z,95388.88
2022-11-12T09:32:39.027Z,95392.08
2022-11-12T09:34:00.711Z,95393.00
2022-11-12T09:35:22.979Z,95392.48
2022-11-12T09:36:45.086Z,95392.90
2022-11-12T09:38:07.446Z,95388.82
2022-11-12T09:39:29.327Z,95379.98
2022-11-12T09:40:52.308Z,95380.95
2022-11-12T09:42:17.909Z,95383.62
2022-11-12T09:43:48.998Z,95379.39
2022-11-12T09:45:33.709Z,95379.91
2022-11-12T09:47:09.834Z,95386.00
2022-11-12T09:48:40.559Z,95387.61
2022-11-12T09:50:11.405Z,95384.06
2022-11-12T09:51:39.504Z,95383.83
2022-11-12T09:53:15.436Z,95383.45
2022-11-12T09:54:37.549Z,95384.52
2022-11-12T09:56:03.417Z,95381.14
2022-11-12T09:57:27.694Z,95378.27
2022-11-12T09:58:50.144Z,95376.67
2022-11-12T10:00:20.394Z,95376.48
2022-11-12T10:01:54.908Z,95376.81
2022-11-12T10:03:31.946Z,95375.60
2022-11-12T10:05:15.538Z,95375.83
2022-11-12T10:06:54.644Z,95377.59
2022-11-12T10:08:41.874Z,95375.09
2022-11-12T10:10:10.422Z,95376.70
2022-11-12T10:12:09.862Z,95373.02
2022-11-12T10:13:44.006Z,95370.81
2022-11-12T10:15:37.047Z,95370.11
2022-11-12T10:17:05.959Z,95373.36
2022-11-12T10:18:51.908Z,95369.44
2022-11-12T10:20:26.274Z,95368.54
2022-11-12T10:22:02.643Z,95364.40
2022-11-12T10:23:53.843Z,95363.04
2022-11-12T10:25:18.293Z,95359.39
2022-11-12T10:26:40.839Z,95354.67
2022-11-12T10:28:14.432Z,95351.38
2022-11-12T10:30:00.654Z,95355.38
2022-11-12T10:31:22.655Z,95351.06
2022-11-12T10:32:46.475Z,95350.65
2022-11-12T10:34:14.618Z,95349.71
2022-11-12T10:35:36.923Z,95347.86
2022-11-12T10:37:06.273Z,95347.45
2022-11-12T10:38:29.943Z,95348.15
2022-11-12T10:39:52.602Z,95345.64
2022-11-12T10:41:27.973Z,95343.90
2022-11-12T10:43:18.815Z,95344.38
2022-11-12T10:44:43.343Z,95341.83
2022-11-12T10:46:38.129Z,95338.87
2022-11-12T10:48:00.769Z,95339.42
2022-11-12T10:49:24.615Z,95339.08
2022-11-12T10:50:46.485Z,95339.89
2022-11-12T10:52:22.172Z,95335.55
2022-11-12T10:53:46.190Z,95334.00
2022-11-12T10:55:23.199Z,95335.23
2022-11-12T10:56:45.254Z,95332.57
2022-11-12T10:58:16.843Z,95335.52
2022-11-12T10:59:38.620Z,95332.64
2022-11-12T11:01:02.441Z,95329.10
2022-11-12T11:02:24.635Z,95334.56
2022-11-12T11:03:58.054Z,95335.93
2022-11-12T11:05:37.851Z,95334.34
2022-11-12T11:07:07.582Z,95332.52
2022-11-12T11:08:50.413Z,95331.77
2022-11-12T11:10:33.335Z,95333.64
2022-11-12T11:11:55.064Z,95333.21
2022-11-12T11:13:23.805Z,95332.98
2022-11-12T11:14:45.604Z,95334.50
2022-11-12T11:16:12.625Z,95332.73
2022-11-12T11:17:35.233Z,95334.23
2022-11-12T11:19:01.318Z,95335.02
2022-11-12T11:20:29.482Z,95336.48
2022-11-12T11:21:51.721Z,95332.36
2022-11-12T11:23:22.381Z,95333.42
2022-11-12T11:24:47.207Z,95331.89
2022-11-12T11:26:54.180Z,95330.55
2022-11-12T11:28:43.106Z,95331.07
2022-11-12T11:30:15.615Z,95332.20
2022-11-12T11:32:08.409Z,95334.27
2022-11-12T11:33:55.537Z,95331.35
2022-11-12T11:35:39.458Z,95332.77
2022-11-12T11:37:13.091Z,95336.56
2022-11-12T11:39:00.109Z,95333.21
2022-11-12T11:40:29.874Z,95335.66
2022-11-12T11:42:22.448Z,95331.14
2022-11-12T11:43:54.689Z,95326.95
2022-11-12T11:45:43.365Z,95327.77
2022-11-12T11:47:59.459Z,95327.15
2022-11-12T11:49:31.974Z,95325.23
2022-11-12T11:51:12.503Z,95325.23
2022-11-12T11:53:00.636Z,95328.00
2022-11-12T11:54:40.352Z,95325.80
2022-11-12T11:56:28.638Z,95326.77
2022-11-12T11:58:27.461Z,95320.44
2022-11-12T12:00:01.572Z,95319.22
2022-11-12T12:01:45.149Z,95313.73
2022-11-12T12:03:31.727Z,95310.65
2022-11-12T12:05:26.895Z,95311.63
2022-11-12T12:07:16.108Z,95308.95
2022-11-12T12:09:02.261Z,95304.15
2022-11-12T12:11:01.657Z,95298.67
2022-11-12T12:12:29.698Z,95294.86
2022-11-12T12:14:10.164Z,95297.84
2022-11-12T12:16:06.223Z,95291.47
2022-11-12T12:17:45.964Z,95291.39
2022-11-12T12:19:23.254Z,95292.60
2022-11-12T12:20:56.153Z,95289.32
2022-11-12T12:22:26.815Z,95289.98
2022-11-12T12:24:02.409Z,95288.92
2022-11-12T12:25:33.118Z,95289.55
2022-11-12T12:26:59.689Z,95289.12
2022-11-12T12:28:34.133Z,95287.08
2022-11-12T12:30:07.114Z,95283.92
2022-11-12T12:31:38.417Z,95289.67
2022-11-12T12:33:33.265Z,95288.89
2022-11-12T12:35:31.110Z,95283.13
2022-11-12T12:37:02.104Z,95287.33
2022-11-12T12:38:44.680Z,95287.19
2022-11-12T12:40:25.056Z,95286.48
2022-11-12T12:41:58.748Z,95287.48
2022-11-12T12:43:31.849Z,95285.77
2022-11-12T12:45:04.984Z,95283.95
2022-11-12T12:46:31.107Z,95283.77
2022-11-12T12:47:54.296Z,95278.38
2022-11-12T12:49:32.665Z,95279.29
2022-11-12T12:50:54.623Z,95279.08
2022-11-12T12:52:16.854Z,95275.95
2022-11-12T12:53:40.793Z,95274.02
2022-11-12T12:55:02.862Z,95270.61
2022-11-12T12:56:30.728Z,95270.66
2022-11-12T12:57:59.728Z,95269.32
2022-11-12T12:59:24.857Z,95267.08
2022-11-12T13:00:52.442Z,95268.41
2022-11-12T13:02:24.190Z,95267.20
2022-11-12T13:03:59.764Z,95270.09
2022-11-12T13:05:41.870Z,95273.67
2022-11-12T13:07:09.902Z,95262.24
2022-11-12T13:08:37.154Z,95264.11
2022-11-12T13:10:36.734Z,95263.68
2022-11-12T13:12:07.489Z,95260.67
2022-11-12T13:13:35.262Z,95258.21
2022-11-12T13:15:15.789Z,95258.33
2022-11-12T13:16:52.907Z,95256.89
2022-11-12T13:18:44.203Z,95254.09
2022-11-12T13:20:08.362Z,95254.38
2022-11-12T13:21:30.664Z,95249.45
2022-11-12T13:22:53.004Z,95245.46
2022-11-12T13:24:16.377Z,95241.41
2022-11-12T13:25:40.810Z,95245.94
2022-11-12T13:27:03.057Z,95244.81
2022-11-12T13:28:25.324Z,95244.50
2022-11-12T13:29:49.650Z,95246.09
2022-11-12T13:31:29.596Z,95243.06
2022-11-12T13:32:52.784Z,95235.15
2022-11-12T13:34:21.964Z,95236.27
2022-11-12T13:35:43.800Z,95233.16
2022-11-12T13:37:06.781Z,95238.06
2022-11-12T13:38:28.899Z,95241.16
2022-11-12T13:39:51.914Z,95240.20
2022-11-12T13:41:43.861Z,95241.70
2022-11-12T13:43:24.696Z,95240.36
2022-11-12T13:44:52.098Z,95239.93
2022-11-12T13:46:33.908Z,95241.59
2022-11-12T13:47:58.010Z,95241.42
2022-11-12T13:49:20.558Z,95241.80
2022-11-12T13:50:48.630Z,95239.90
2022-11-12T13:52:14.720Z,95239.21
2022-11-12T13:53:36.391Z,95236.83
2022-11-12T13:55:16.008Z,95230.10
2022-11-12T13:56:37.885Z,95233.07
2022-11-12T13:58:00.179Z,95234.35
2022-11-12T13:59:25.522Z,95233.06
2022-11-12T14:00:56.743Z,95233.63
2022-11-12T14:02:25.663Z,95233.27
2022-11-12T14:03:52.000Z,95234.98
2022-11-12T14:05:18.606Z,95230.41
2022-11-12T14:07:02.511Z,95232.27
2022-11-12T14:08:31.510Z,95232.89
2022-11-12T14:10:23.095Z,95231.30
2022-11-12T14:11:46.353Z,95233.86
2022-11-12T14:13:30.320Z,95234.11
2022-11-12T14:15:14.060Z,95235.21
2022-11-12T14:17:22.672Z,95235.25
2022-11-12T14:19:02.737Z,95227.71
2022-11-12T14:20:40.097Z,95225.34
2022-11-12T14:22:14.024Z,95227.75
2022-11-12T14:23:38.411Z,95230.36
2022-11-12T14:25:02.637Z,95224.81
2022-11-12T14:26:43.067Z,95226.60
2022-11-12T14:28:05.490Z,95225.67
2022-11-12T14:29:32.986Z,95227.02
2022-11-12T14:30:58.087Z,95227.56
2022-11-12T14:32:20.392Z,95225.77
2022-11-12T14:33:42.231Z,95224.67
2022-11-12T14:35:21.360Z,95224.33
2022-11-12T14:36:44.410Z,95216.90
2022-11-12T14:38:11.755Z,95217.60
2022-11-12T14:39:34.975Z,95216.22
2022-11-12T14:41:02.160Z,95221.98
2022-11-12T14:42:24.570Z,95222.79
2022-11-12T14:43:55.008Z,95223.77
2022-11-12T14:45:25.023Z,95218.54
2022-11-12T14:46:50.277Z,95223.14
2022-11-12T14:48:14.711Z,95220.86
2022-11-12T14:49:43.587Z,95220.17
2022-11-12T14:51:12.056Z,95222.11
2022-11-12T14:52:41.756Z,95219.03
2022-11-12T14:54:07.775Z,95219.63
2022-11-12T14:55:34.652Z,95221.98
2022-11-12T14:56:58.957Z,95220.66
2022-11-12T14:58:23.203Z,95221.78
2022-11-12T14:59:45.245Z,95219.56
2022-11-12T15:02:14.457Z,95218.58
2022-11-12T15:03:19.421Z,95218.15
2022-11-12T15:04:54.722Z,95213.26
2022-11-12T15:06:27.172Z,95209.42
2022-11-12T15:07:56.280Z,95210.09
2022-11-12T15:09:41.214Z,95213.95
2022-11-12T15:11:20.415Z,95217.11
2022-11-12T15:12:44.585Z,95215.94
2022-11-12T15:14:06.658Z,95213.27
2022-11-12T15:15:29.068Z,95215.60
2022-11-12T15:16:52.708Z,95212.33
2022-11-12T15:18:18.939Z,95213.85
2022-11-12T15:19:44.343Z,95214.45
2022-11-12T15:21:12.310Z,95215.70
2022-11-12T15:22:35.443Z,95213.65
2022-11-12T15:24:03.682Z,95217.06
2022-11-12T15:25:29.131Z,95219.29
2022-11-12T15:26:51.240Z,95221.39
2022-11-12T15:28:25.472Z,95220.54
2022-11-12T15:29:47.347Z,95222.53
2022-11-12T15:31:17.461Z,95224.23
2022-11-12T15:32:39.159Z,95217.92
2022-11-12T15:34:20.225Z,95213.42
2022-11-12T15:35:46.531Z,95214.42
2022-11-12T15:37:23.757Z,95213.89
2022-11-12T15:38:54.180Z,95220.33
2022-11-12T15:40:19.915Z,95219.46
2022-11-12T15:41:42.053Z,95226.58
2022-11-12T15:43:15.373Z,95224.64
2022-11-12T15:44:37.652Z,95224.52
2022-11-12T15:46:00.326Z,95228.23
2022-11-12T15:47:22.330Z,95223.88
2022-11-12T15:48:44.973Z,95227.56
2022-11-12T15:50:25.316Z,95224.66
2022-11-12T15:51:47.200Z,95219.36
2022-11-12T15:53:09.821Z,95222.16
2022-11-12T15:54:32.276Z,95219.73
2022-11-12T15:55:57.235Z,95216.40
2022-11-12T15:57:22.804Z,95218.33
2022-11-12T15:58:45.378Z,95217.02
2022-11-12T16:00:16.265Z,95218.33
2022-11-12T16:03:21.823Z,95220.99
2022-11-12T16:04:44.473Z,95222.92
2022-11-12T16:06:09.378Z,95223.91
2022-11-12T16:07:31.415Z,95220.79
2022-11-12T16:08:54.125Z,95219.84
2022-11-12T16:10:19.642Z,95215.66
2022-11-12T16:11:42.254Z,95215.55
2022-11-12T16:13:07.841Z,95217.55
2022-11-12T16:14:30.899Z,95217.16
2022-11-12T16:15:54.302Z,95218.78
2022-11-12T16:17:18.606Z,95218.29
2022-11-12T16:18:43.408Z,95224.14
2022-11-12T16:20:24.087Z,95216.77
2022-11-12T16:21:46.663Z,95218.13
2022-11-12T16:23:09.004Z,95214.95
2022-11-12T16:24:30.884Z,95218.33
2022-11-12T16:25:56.588Z,95217.89
2022-11-12T16:27:20.613Z,95217.80
2022-11-12T16:28:44.144Z,95219.11
2022-11-12T16:30:17.530Z,95218.43
2022-11-12T16:31:41.773Z,95218.48
2022-11-12T16:33:03.750Z,95219.41
2022-11-12T16:34:25.806Z,95217.94
2022-11-12T16:35:48.584Z,95221.16
2022-11-12T16:37:13.240Z,95223.06
2022-11-12T16:38:35.412Z,95224.30
2022-11-12T16:39:58.126Z,95222.13
2022-11-12T16:41:20.481Z,95217.67
2022-11-12T16:42:45.972Z,95221.34
2022-11-12T16:44:08.247Z,95218.82
2022-11-12T16:45:35.516Z,95216.67
2022-11-12T16:46:58.145Z,95218.40
2022-11-12T16:48:22.326Z,95214.84
2022-11-12T16:49:44.666Z,95215.73
2022-11-12T16:51:10.372Z,95212.82
2022-11-12T16:52:32.545Z,95212.61
2022-11-12T16:53:54.651Z,95209.98
2022-11-12T16:55:20.103Z,95209.08
2022-11-12T16:56:42.257Z,95214.89
2022-11-12T16:58:04.466Z,95218.05
2022-11-12T16:59:29.258Z,95214.30
2022-11-12T17:00:57.353Z,95211.70
2022-11-12T17:02:21.603Z,95213.38